Time;durP1;ratioP1;P1;durP2;ratioP2;P2;SDS_P1;SDS_P2;PMS_P1;PMS_P2;Temp;Humidity;BMP_temperature;BMP_pressure;BME280_temperature;BME280_humidity;BME280_pressure;Samples;Min_cycle;Max_cycle;Signal;HPM_P1;HPM_P2
2021/05/05 00:02:04;;;;;;;2.20;2.00;;;;;;;14.74;52.89;94468.66;4917656;29;20213;-81
2021/05/05 00:04:30;;;;;;;2.90;2.20;;;;;;;14.69;52.67;94465.94;4917196;29;20594;-81
2021/05/05 00:06:57;;;;;;;2.70;1.90;;;;;;;14.72;52.59;94466.28;4917527;29;20297;-81
2021/05/05 00:09:23;;;;;;;2.20;2.00;;;;;;;14.72;52.56;94463.69;4917516;29;20712;-81
2021/05/05 00:11:49;;;;;;;2.60;1.90;;;;;;;14.72;52.83;94458.50;4916861;29;20230;-81
2021/05/05 00:14:18;;;;;;;2.60;2.40;;;;;;;14.72;52.76;94455.13;4917206;29;20229;-81
2021/05/05 00:16:45;;;;;;;2.93;2.00;;;;;;;14.72;52.72;94447.34;4917885;29;20214;-82
2021/05/05 00:19:11;;;;;;;2.40;2.20;;;;;;;14.79;52.81;94445.44;4917157;29;20207;-82
2021/05/05 00:21:37;;;;;;;2.00;1.90;;;;;;;14.81;52.31;94454.56;4916679;29;20575;-82
2021/05/05 00:24:04;;;;;;;3.00;2.00;;;;;;;14.79;52.62;94445.44;4917014;29;20305;-81
2021/05/05 00:26:30;;;;;;;2.13;2.00;;;;;;;14.76;52.49;94446.69;4917104;29;20198;-81
2021/05/05 00:28:56;;;;;;;2.10;2.00;;;;;;;14.77;52.14;94443.06;4917346;29;20210;-81
2021/05/05 00:31:24;;;;;;;2.30;2.10;;;;;;;14.78;52.39;94444.66;4917311;29;20605;-82
2021/05/05 00:33:50;;;;;;;2.27;2.07;;;;;;;14.68;52.43;94452.22;4898212;29;20321;-81
2021/05/05 00:36:16;;;;;;;2.57;1.90;;;;;;;14.76;52.38;94449.28;4901812;29;20730;-82
2021/05/05 00:38:42;;;;;;;2.10;2.00;;;;;;;14.81;52.58;94440.81;4917706;29;20202;-81
2021/05/05 00:41:10;;;;;;;1.87;1.77;;;;;;;14.85;52.50;94434.13;4916792;29;20325;-81
2021/05/05 00:43:36;;;;;;;2.00;1.87;;;;;;;14.85;52.01;94434.13;4916959;29;20609;-83
2021/05/05 00:46:04;;;;;;;2.40;2.20;;;;;;;14.89;52.12;94421.50;4917295;29;20791;-81
2021/05/05 00:48:30;;;;;;;2.27;1.90;;;;;;;14.89;52.09;94422.28;4917493;29;20213;-82
2021/05/05 00:50:58;;;;;;;2.30;2.10;;;;;;;14.89;52.42;94424.09;4917153;29;20202;-83
2021/05/05 00:53:24;;;;;;;2.13;2.00;;;;;;;14.78;52.35;94415.34;4916532;29;20222;-81
2021/05/05 00:55:51;;;;;;;2.40;2.20;;;;;;;14.72;52.14;94409.28;4916676;29;20262;-82
2021/05/05 00:58:18;;;;;;;2.60;2.10;;;;;;;14.76;52.18;94407.03;4916167;29;20210;-81
2021/05/05 01:00:46;;;;;;;2.40;2.20;;;;;;;14.80;52.34;94405.56;4916147;29;20219;-82
2021/05/05 01:03:12;;;;;;;2.53;1.90;;;;;;;14.82;52.38;94403.50;4915220;29;20274;-81
2021/05/05 01:05:39;;;;;;;2.10;2.00;;;;;;;14.79;52.81;94404.75;4915876;29;20253;-82
2021/05/05 01:08:07;;;;;;;2.67;2.10;;;;;;;14.67;52.81;94391.03;4916213;29;20261;-81
2021/05/05 01:10:33;;;;;;;2.80;2.60;;;;;;;14.72;53.04;94398.13;4915789;29;20657;-82
2021/05/05 01:12:59;;;;;;;3.70;3.40;;;;;;;14.71;52.56;94399.16;4916761;29;20222;-82
2021/05/05 01:15:26;;;;;;;4.83;4.33;;;;;;;14.71;52.77;94399.94;4916834;29;20213;-81
2021/05/05 01:17:52;;;;;;;4.30;3.90;;;;;;;14.70;52.77;94397.56;4916287;29;20312;-83
2021/05/05 01:20:18;;;;;;;3.93;3.53;;;;;;;14.60;53.75;94407.75;4916365;29;20726;-81
2021/05/05 01:22:45;;;;;;;3.37;2.80;;;;;;;14.63;52.77;94407.28;4915674;29;20210;-81
2021/05/05 01:25:13;;;;;;;3.03;2.80;;;;;;;14.67;52.60;94413.56;4916684;29;20241;-82
2021/05/05 01:27:40;;;;;;;2.87;2.57;;;;;;;14.68;53.04;94408.16;4916106;29;20571;-82
2021/05/05 01:30:09;;;;;;;2.90;2.60;;;;;;;14.58;54.62;94389.84;4916651;29;20726;-82
2021/05/05 01:32:36;;;;;;;2.80;2.60;;;;;;;14.57;54.65;94409.00;4916472;29;20213;-82
2021/05/05 01:35:03;;;;;;;2.40;2.20;;;;;;;14.47;55.52;94401.81;4917257;29;20254;-81
2021/05/05 01:37:30;;;;;;;2.67;2.47;;;;;;;14.36;56.42;94402.59;4915845;29;20198;-82
2021/05/05 01:39:56;;;;;;;2.70;2.50;;;;;;;14.38;56.41;94408.34;4916248;29;20313;-82
2021/05/05 01:42:22;;;;;;;2.70;2.50;;;;;;;14.36;57.07;94396.63;4915728;29;20866;-81
2021/05/05 01:44:48;;;;;;;3.07;2.47;;;;;;;14.37;56.62;94398.22;4915421;29;20313;-81
2021/05/05 01:47:14;;;;;;;2.70;2.50;;;;;;;14.30;57.51;94398.31;4915965;29;20418;-81
2021/05/05 01:49:43;;;;;;;3.80;2.97;;;;;;;14.29;57.52;94404.50;4915251;29;20202;-82
2021/05/05 01:52:09;;;;;;;2.87;2.60;;;;;;;14.28;57.17;94402.16;4896502;29;20202;-82
2021/05/05 01:54:36;;;;;;;4.27;2.50;;;;;;;14.29;57.97;94395.97;4896353;29;20294;-81
2021/05/05 01:57:22;;;;;;;4.53;2.80;;;;;;;14.31;57.99;94391.34;4914359;29;20205;-81
2021/05/05 01:59:49;;;;;;;3.20;2.63;;;;;;;14.17;58.54;94396.00;4914579;29;20210;-81
2021/05/05 02:02:15;;;;;;;2.90;2.70;;;;;;;14.15;58.24;94405.78;4915036;29;20270;-82
2021/05/05 02:04:41;;;;;;;3.10;2.90;;;;;;;14.10;59.06;94392.72;4915919;29;20240;-82
2021/05/05 02:07:07;;;;;;;2.90;2.70;;;;;;;14.00;59.27;94385.56;4921454;29;20194;-83
2021/05/05 02:09:33;;;;;;;3.20;2.60;;;;;;;14.02;58.64;94380.94;4925688;29;20265;-83
2021/05/05 02:11:59;;;;;;;2.97;2.77;;;;;;;14.07;58.92;94388.78;4920279;29;20629;-83
2021/05/05 02:14:26;;;;;;;3.30;3.00;;;;;;;14.11;58.57;94384.75;4919968;29;20214;-83
2021/05/05 02:16:54;;;;;;;3.30;3.10;;;;;;;14.12;59.70;94390.69;4921698;29;20219;-83
2021/05/05 02:19:20;;;;;;;3.30;3.00;;;;;;;14.17;59.16;94385.63;4921628;29;20217;-84
2021/05/05 02:21:46;;;;;;;3.10;2.90;;;;;;;14.16;59.10;94379.69;4920549;29;20199;-83
2021/05/05 02:24:12;;;;;;;3.30;3.00;;;;;;;14.12;59.58;94377.75;4921760;29;20237;-83
2021/05/05 02:26:38;;;;;;;3.20;2.77;;;;;;;13.98;59.88;94372.06;4918820;29;20206;-83
2021/05/05 02:29:04;;;;;;;3.33;3.00;;;;;;;14.00;59.50;94364.06;4917754;29;20365;-83
2021/05/05 02:31:31;;;;;;;3.57;3.27;;;;;;;13.98;59.41;94372.06;4916757;29;20206;-83
2021/05/05 02:33:57;;;;;;;3.30;2.80;;;;;;;14.02;59.33;94359.44;4917521;29;20327;-83
2021/05/05 02:36:23;;;;;;;3.20;2.90;;;;;;;14.00;59.22;94357.09;4917626;29;20331;-83
2021/05/05 02:38:49;;;;;;;2.97;2.77;;;;;;;13.93;59.59;94358.22;4918127;29;20234;-83
2021/05/05 02:41:15;;;;;;;3.10;2.80;;;;;;;13.82;60.60;94352.84;4917472;29;20217;-83
2021/05/05 02:43:41;;;;;;;3.10;2.80;;;;;;;13.95;59.84;94358.78;4917020;29;20325;-83
2021/05/05 02:46:07;;;;;;;3.80;3.20;;;;;;;13.91;60.63;94360.22;4917422;29;20210;-83
2021/05/05 02:48:34;;;;;;;3.73;2.90;;;;;;;13.95;59.46;94345.84;4917092;29;20221;-83
2021/05/05 02:51:00;;;;;;;3.00;2.80;;;;;;;14.03;59.21;94343.69;4917186;29;20198;-83
2021/05/05 02:53:26;;;;;;;2.83;2.63;;;;;;;13.94;60.31;94345.06;4916693;29;20228;-84
2021/05/05 02:55:52;;;;;;;2.93;2.73;;;;;;;14.01;59.46;94337.97;4916770;29;20230;-83
2021/05/05 02:58:18;;;;;;;3.13;2.83;;;;;;;13.95;60.30;94344.03;4917211;29;20206;-83
2021/05/05 03:00:44;;;;;;;4.50;3.10;;;;;;;13.98;60.27;94342.81;4917145;29;20202;-83
2021/05/05 03:03:10;;;;;;;3.40;3.10;;;;;;;13.93;60.78;94346.06;4917195;29;20674;-83
2021/05/05 03:05:37;;;;;;;4.10;3.13;;;;;;;13.84;62.23;94347.44;4916201;29;20218;-83
2021/05/05 03:08:03;;;;;;;3.00;2.80;;;;;;;13.81;64.17;94327.97;4916626;29;20658;-83
2021/05/05 03:10:29;;;;;;;3.13;2.93;;;;;;;13.78;63.87;94310.31;4915763;29;20230;-83
2021/05/05 03:12:55;;;;;;;3.17;2.87;;;;;;;13.82;62.73;94310.66;4917076;29;20281;-83
2021/05/05 03:15:21;;;;;;;3.10;2.90;;;;;;;13.85;63.64;94317.97;4916120;29;20198;-83
2021/05/05 03:17:47;;;;;;;3.27;3.03;;;;;;;13.87;63.91;94318.50;4916801;29;20254;-83
2021/05/05 03:20:13;;;;;;;3.53;3.23;;;;;;;13.77;65.37;94307.94;4916396;29;20202;-83
2021/05/05 03:22:40;;;;;;;3.27;3.00;;;;;;;13.73;64.73;94306.81;4916074;29;20199;-83
2021/05/05 03:25:09;;;;;;;10.67;9.57;;;;;;;13.75;64.95;94305.59;4917024;29;20225;-83
2021/05/05 03:27:35;;;;;;;7.40;6.07;;;;;;;13.77;64.68;94310.53;4915325;29;20202;-83
2021/05/05 03:30:02;;;;;;;3.40;3.10;;;;;;;13.74;64.84;94304.03;4916312;29;20210;-83
2021/05/05 03:32:28;;;;;;;3.60;3.30;;;;;;;13.71;65.78;94311.44;4916086;29;20213;-83
2021/05/05 03:34:54;;;;;;;3.30;3.00;;;;;;;13.74;65.19;94311.00;4916110;29;20214;-83
2021/05/05 03:37:20;;;;;;;2.93;2.70;;;;;;;13.78;64.96;94318.06;4916689;29;20210;-83
2021/05/05 03:39:46;;;;;;;3.10;2.90;;;;;;;13.82;64.70;94308.84;4916336;29;20598;-83
2021/05/05 03:42:12;;;;;;;3.10;2.90;;;;;;;13.81;64.38;94316.84;4916791;29;20249;-83
2021/05/05 03:44:38;;;;;;;3.27;3.07;;;;;;;13.84;64.52;94308.63;4916208;29;20230;-83
2021/05/05 03:47:05;;;;;;;3.10;2.83;;;;;;;13.83;64.50;94304.47;4916666;29;20213;-83
2021/05/05 03:49:31;;;;;;;2.90;2.70;;;;;;;13.80;64.20;94299.75;4916686;29;20273;-83
2021/05/05 03:51:57;;;;;;;3.10;2.90;;;;;;;13.85;64.28;94309.41;4911884;29;20209;-83
2021/05/05 03:54:23;;;;;;;3.30;3.00;;;;;;;13.86;64.16;94319.50;4915408;29;20218;-83
2021/05/05 03:56:50;;;;;;;3.57;3.03;;;;;;;13.81;66.69;94322.00;4916053;29;20213;-83
2021/05/05 03:59:16;;;;;;;3.50;3.20;;;;;;;13.80;67.78;94323.81;4916351;29;20287;-83
2021/05/05 04:01:41;;;;;;;3.40;3.10;;;;;;;13.77;67.29;94331.25;4915752;29;20337;-82
2021/05/05 04:04:07;;;;;;;3.40;3.20;;;;;;;13.74;68.62;94326.50;4916234;29;20234;-83
2021/05/05 04:06:34;;;;;;;3.63;3.20;;;;;;;13.72;68.71;94323.34;4916017;29;20615;-83
2021/05/05 04:08:59;;;;;;;3.33;3.07;;;;;;;13.69;69.89;94319.41;4916494;29;20218;-83
2021/05/05 04:11:26;;;;;;;3.37;3.07;;;;;;;13.69;69.42;94334.16;4914629;29;20277;-83
2021/05/05 04:13:54;;;;;;;3.67;3.20;;;;;;;13.52;70.90;94331.47;4910925;29;20513;-83
2021/05/05 04:16:20;;;;;;;3.57;3.17;;;;;;;13.52;70.67;94331.47;4914781;29;20726;-84
2021/05/05 04:18:46;;;;;;;4.80;3.87;;;;;;;13.40;69.88;94331.47;4915434;29;20238;-83
2021/05/05 04:21:12;;;;;;;3.90;3.60;;;;;;;13.34;70.30;94329.78;4916302;29;20206;-83
2021/05/05 04:23:38;;;;;;;4.30;3.90;;;;;;;13.25;71.39;94332.94;4915289;29;20250;-83
2021/05/05 04:26:05;;;;;;;3.90;3.60;;;;;;;13.25;71.15;94345.84;4909158;29;20693;-83
2021/05/05 04:28:32;;;;;;;4.23;3.87;;;;;;;13.14;73.18;94355.91;4915649;29;20354;-83
2021/05/05 04:30:59;;;;;;;3.20;3.00;;;;;;;12.84;74.47;94357.75;4915880;29;20194;-83
2021/05/05 04:33:26;;;;;;;2.90;2.60;;;;;;;12.62;72.92;94372.94;4915028;29;20971;-83
2021/05/05 04:35:52;;;;;;;1.90;1.80;;;;;;;12.34;73.19;94386.38;4916549;29;20221;-84
2021/05/05 04:38:18;;;;;;;1.70;1.60;;;;;;;12.13;73.50;94397.13;4910831;29;20674;-83
2021/05/05 04:40:44;;;;;;;1.60;1.50;;;;;;;12.20;72.60;94408.19;4915626;29;20292;-83
2021/05/05 04:43:10;;;;;;;1.77;1.50;;;;;;;12.00;72.86;94410.97;4918981;29;20218;-83
2021/05/05 04:45:36;;;;;;;1.63;1.37;;;;;;;11.78;72.67;94417.53;4919123;29;20243;-82
2021/05/05 04:48:03;;;;;;;2.20;1.20;;;;;;;11.43;73.68;94422.34;4918661;29;20191;-83
2021/05/05 04:50:29;;;;;;;18.17;16.07;;;;;;;11.28;73.62;94427.81;4919598;29;20217;-84
2021/05/05 04:52:55;;;;;;;23.63;20.70;;;;;;;11.20;74.94;94429.84;4918309;29;20206;-82
2021/05/05 04:55:22;;;;;;;4.77;3.73;;;;;;;11.08;75.68;94438.25;4919168;29;20210;-83
2021/05/05 04:57:48;;;;;;;2.30;1.30;;;;;;;11.01;76.11;94444.41;4918504;29;20573;-83
2021/05/05 05:00:15;;;;;;;1.80;1.30;;;;;;;11.04;76.07;94437.06;4919169;29;20237;-83
2021/05/05 05:02:41;;;;;;;2.60;1.20;;;;;;;11.17;75.54;94456.81;4907717;29;20198;-83
2021/05/05 05:05:08;;;;;;;1.17;1.07;;;;;;;11.08;76.29;94461.44;4918355;29;20322;-79
2021/05/05 05:07:35;;;;;;;1.40;1.20;;;;;;;11.04;77.51;94469.75;4918071;29;20684;-81
2021/05/05 05:10:01;;;;;;;1.37;1.00;;;;;;;10.97;76.41;94490.41;4918485;29;20317;-83
2021/05/05 05:12:27;;;;;;;2.50;1.40;;;;;;;10.67;76.66;94499.63;4918882;29;20206;-83
2021/05/05 05:14:53;;;;;;;2.07;1.70;;;;;;;10.74;75.91;94495.28;4918292;29;20749;-82
2021/05/05 05:17:20;;;;;;;1.97;1.30;;;;;;;10.74;78.22;94510.72;4918287;29;20237;-84
2021/05/05 05:19:46;;;;;;;1.87;1.40;;;;;;;10.87;76.85;94505.50;4919108;29;20206;-82
2021/05/05 05:22:13;;;;;;;2.73;1.50;;;;;;;10.91;75.54;94508.47;4918049;29;20203;-79
2021/05/05 05:24:39;;;;;;;1.40;1.20;;;;;;;10.90;75.72;94506.88;4918196;29;20237;-83
2021/05/05 05:27:05;;;;;;;1.03;1.00;;;;;;;10.68;75.70;94517.47;4919160;29;20678;-82
2021/05/05 05:29:32;;;;;;;1.33;1.23;;;;;;;10.66;77.41;94521.22;4912667;29;20203;-81
2021/05/05 05:31:57;;;;;;;3.07;1.50;;;;;;;10.79;75.65;94516.03;4912108;29;20797;-82
2021/05/05 05:34:23;;;;;;;1.70;1.20;;;;;;;10.83;77.38;94498.38;4910540;29;20314;-84
2021/05/05 05:36:50;;;;;;;1.47;1.20;;;;;;;10.85;76.22;94496.41;4917834;29;20214;-85
2021/05/05 05:39:16;;;;;;;1.60;1.13;;;;;;;10.82;76.39;94492.44;4919631;29;20212;-83
2021/05/05 05:41:42;;;;;;;1.10;1.00;;;;;;;10.79;75.78;94482.56;4918171;29;20752;-83
2021/05/05 05:44:09;;;;;;;3.40;1.73;;;;;;;10.83;75.62;94486.31;4917233;29;20222;-83
2021/05/05 05:46:38;;;;;;;1.80;1.20;;;;;;;10.89;75.13;94493.22;4917098;29;20589;-80
2021/05/05 05:49:04;;;;;;;1.80;1.20;;;;;;;10.90;74.39;94506.88;4917267;29;20807;-82
2021/05/05 05:51:30;;;;;;;1.77;1.30;;;;;;;10.94;72.48;94513.22;4915963;29;20206;-81
2021/05/05 05:53:56;;;;;;;1.00;0.90;;;;;;;10.77;73.34;94504.38;4915443;29;20829;-81
2021/05/05 05:56:23;;;;;;;0.77;0.77;;;;;;;10.68;74.36;94503.78;4917489;29;20242;-83
2021/05/05 05:58:49;;;;;;;0.93;0.93;;;;;;;10.67;73.28;94523.59;4916700;29;20194;-80
2021/05/05 06:01:15;;;;;;;1.73;0.90;;;;;;;10.66;72.93;94529.75;4916796;29;20214;-79
2021/05/05 06:03:41;;;;;;;1.17;0.90;;;;;;;10.60;74.00;94537.47;4897595;29;20230;-81
2021/05/05 06:06:07;;;;;;;1.90;0.90;;;;;;;10.53;74.31;94547.00;4900111;29;20220;-79
2021/05/05 06:08:36;;;;;;;2.63;0.80;;;;;;;10.59;73.40;94554.69;4911838;29;20209;-82
2021/05/05 06:11:02;;;;;;;2.50;0.80;;;;;;;10.52;74.00;94560.88;4900583;29;20234;-80
2021/05/05 06:13:29;;;;;;;0.83;0.83;;;;;;;10.59;72.89;94577.84;4921313;29;20226;-82
2021/05/05 06:15:55;;;;;;;1.17;0.70;;;;;;;10.53;72.82;94578.69;4916727;29;20202;-80
2021/05/05 06:18:21;;;;;;;2.33;0.80;;;;;;;10.51;73.35;94590.94;4916976;29;20288;-82
2021/05/05 06:20:47;;;;;;;1.60;0.93;;;;;;;10.52;73.28;94595.13;4917117;29;20212;-82
2021/05/05 06:23:13;;;;;;;1.40;0.83;;;;;;;10.47;73.41;94601.84;4915351;29;20698;-83
2021/05/05 06:25:39;;;;;;;2.90;0.93;;;;;;;10.48;71.96;94624.81;4916244;29;20919;-81
2021/05/05 06:28:05;;;;;;;2.40;0.90;;;;;;;10.55;71.53;94641.03;4918579;29;20578;-81
2021/05/05 06:30:31;;;;;;;1.70;1.00;;;;;;;10.52;72.43;94638.84;4915903;29;20204;-83
2021/05/05 06:32:58;;;;;;;1.60;1.00;;;;;;;10.57;71.91;94635.69;4920467;29;20198;-81
2021/05/05 06:35:24;;;;;;;1.53;1.17;;;;;;;10.57;72.47;94651.94;4920158;29;20205;-80
2021/05/05 06:37:50;;;;;;;2.47;0.90;;;;;;;10.60;70.85;94648.94;4920391;29;20206;-81
2021/05/05 06:40:17;;;;;;;1.50;1.10;;;;;;;10.61;72.15;94654.88;4922392;29;20600;-81
2021/05/05 06:42:43;;;;;;;1.00;0.90;;;;;;;10.53;69.62;94657.66;4918386;29;20209;-79
2021/05/05 06:45:10;;;;;;;1.20;0.90;;;;;;;10.47;70.34;94651.53;4916960;29;20312;-83
2021/05/05 06:47:37;;;;;;;0.97;0.80;;;;;;;10.24;71.09;94661.41;4917489;29;20205;-82
2021/05/05 06:50:05;;;;;;;1.10;0.90;;;;;;;10.17;69.52;94661.38;4920315;29;20210;-84
2021/05/05 06:52:31;;;;;;;1.53;1.10;;;;;;;10.05;72.11;94657.78;4923384;29;20202;-84
2021/05/05 06:54:57;;;;;;;0.83;0.80;;;;;;;10.11;71.70;94657.03;4922059;29;20228;-85
2021/05/05 06:57:23;;;;;;;1.13;1.03;;;;;;;10.13;71.74;94651.69;4921887;29;20623;-81
2021/05/05 06:59:49;;;;;;;3.13;0.90;;;;;;;10.17;69.57;94634.88;4922096;29;20678;-85
2021/05/05 07:02:16;;;;;;;1.57;0.90;;;;;;;10.16;68.81;94639.22;4905580;29;20206;-84
2021/05/05 07:04:43;;;;;;;0.90;0.90;;;;;;;10.20;71.24;94626.81;4919600;29;20218;-83
2021/05/05 07:07:10;;;;;;;1.73;0.90;;;;;;;10.26;70.86;94631.94;4914193;29;20199;-82
2021/05/05 07:09:36;;;;;;;0.80;0.80;;;;;;;10.33;70.78;94644.81;4918219;29;20198;-82
2021/05/05 07:12:02;;;;;;;2.13;1.50;;;;;;;10.31;70.63;94641.63;4927261;29;20205;-84
2021/05/05 07:14:28;;;;;;;0.90;0.90;;;;;;;10.29;72.17;94643.59;4927681;29;20218;-83
2021/05/05 07:16:54;;;;;;;1.27;1.00;;;;;;;10.19;72.88;94638.06;4926931;29;20269;-83
2021/05/05 07:19:21;;;;;;;0.93;0.93;;;;;;;10.26;71.31;94633.72;4925949;29;20199;-83
2021/05/05 07:21:47;;;;;;;1.00;0.90;;;;;;;10.26;72.50;94639.66;4926149;29;20206;-83
2021/05/05 07:24:13;;;;;;;0.73;0.73;;;;;;;10.27;72.38;94637.88;4925687;29;20229;-83
2021/05/05 07:26:39;;;;;;;1.00;0.90;;;;;;;10.29;72.43;94634.09;4925857;29;20298;-82
2021/05/05 07:29:05;;;;;;;1.10;0.90;;;;;;;10.37;72.10;94633.94;4925470;29;20332;-80
2021/05/05 07:31:31;;;;;;;1.17;1.07;;;;;;;10.36;74.54;94631.53;4922597;29;20226;-81
2021/05/05 07:33:59;;;;;;;1.00;0.90;;;;;;;10.50;74.19;94645.97;4923551;29;20707;-83
2021/05/05 07:36:27;;;;;;;1.27;1.03;;;;;;;10.53;71.64;94645.59;4925244;29;20206;-81
2021/05/05 07:39:17;;;;;;;1.70;0.90;;;;;;;10.64;70.69;94641.59;4922861;29;20212;-83
2021/05/05 07:47:13;;;;;;;0.90;0.90;;;;;;;10.81;70.67;94658.22;4924736;29;20237;-83
2021/05/05 07:49:43;;;;;;;0.70;0.70;;;;;;;10.67;70.17;94657.44;4925153;29;20617;-82
2021/05/05 07:52:09;;;;;;;0.97;0.90;;;;;;;10.77;69.63;94651.91;4925824;29;20205;-81
2021/05/05 07:54:37;;;;;;;0.80;0.80;;;;;;;10.80;68.93;94650.69;4925504;29;20221;-82
2021/05/05 07:57:03;;;;;;;0.97;0.80;;;;;;;10.79;68.91;94652.47;4924941;29;20197;-83
2021/05/05 07:59:29;;;;;;;0.80;0.70;;;;;;;10.76;70.21;94662.41;4925406;29;20217;-83
2021/05/05 08:01:55;;;;;;;0.90;0.70;;;;;;;10.63;68.43;94652.91;4925423;29;20274;-83
2021/05/05 08:04:21;;;;;;;1.10;0.83;;;;;;;10.63;68.64;94648.53;4925169;29;20728;-83
2021/05/05 08:06:47;;;;;;;0.77;0.70;;;;;;;10.66;70.52;94665.38;4925022;29;20206;-82
2021/05/05 08:09:13;;;;;;;1.10;0.70;;;;;;;10.67;69.32;94642.00;4925853;29;20208;-83
2021/05/05 08:11:40;;;;;;;0.80;0.77;;;;;;;10.65;68.76;94645.78;4924926;29;20608;-84
2021/05/05 08:14:06;;;;;;;0.97;0.77;;;;;;;10.75;68.78;94642.81;4928039;29;20292;-81
2021/05/05 08:16:32;;;;;;;0.70;0.70;;;;;;;10.85;68.24;94658.63;4929214;29;20202;-82
2021/05/05 08:19:01;;;;;;;0.80;0.80;;;;;;;11.02;67.96;94675.22;4928581;29;20208;-82
2021/05/05 08:21:30;;;;;;;0.60;0.60;;;;;;;11.11;68.77;94676.59;4928924;29;20206;-80
2021/05/05 08:23:56;;;;;;;0.60;0.60;;;;;;;11.15;68.68;94692.47;4928779;29;20236;-83
2021/05/05 08:26:22;;;;;;;0.70;0.70;;;;;;;11.00;68.49;94708.13;4927839;29;20202;-83
2021/05/05 08:28:49;;;;;;;0.70;0.70;;;;;;;10.98;70.04;94702.38;4928018;29;20697;-83
2021/05/05 08:31:15;;;;;;;0.97;0.80;;;;;;;10.93;70.48;94708.16;4927762;29;20505;-81
2021/05/05 08:33:41;;;;;;;0.70;0.70;;;;;;;10.95;70.38;94711.31;4928547;29;20747;-81
2021/05/05 08:36:10;;;;;;;0.70;0.70;;;;;;;11.16;70.28;94714.66;4928250;29;20206;-82
2021/05/05 08:38:36;;;;;;;1.47;0.70;;;;;;;11.22;68.55;94695.78;4928026;29;20206;-80
2021/05/05 08:41:04;;;;;;;0.73;0.73;;;;;;;11.29;68.44;94699.16;4928291;29;20232;-81
2021/05/05 08:43:32;;;;;;;0.70;0.70;;;;;;;11.36;69.85;94695.56;4928241;29;20319;-83
2021/05/05 08:45:59;;;;;;;0.70;0.70;;;;;;;11.25;70.60;94690.25;4927986;29;20651;-83
2021/05/05 08:48:26;;;;;;;0.80;0.70;;;;;;;11.20;69.39;94693.41;4928555;29;20198;-82
2021/05/05 08:50:52;;;;;;;0.80;0.80;;;;;;;11.25;69.12;94691.03;4927923;29;20229;-81
2021/05/05 08:53:18;;;;;;;0.70;0.70;;;;;;;11.24;68.93;94675.78;4928262;29;20228;-82
2021/05/05 08:55:44;;;;;;;0.60;0.60;;;;;;;11.15;68.76;94698.41;4928711;29;20202;-80
2021/05/05 08:58:10;;;;;;;0.77;0.70;;;;;;;11.08;71.78;94708.72;4928723;29;20233;-82
2021/05/05 09:00:38;;;;;;;0.80;0.80;;;;;;;10.99;69.63;94703.94;4928222;29;20214;-81
2021/05/05 09:03:07;;;;;;;0.87;0.87;;;;;;;11.05;69.61;94708.31;4926995;29;20214;-82
2021/05/05 09:05:51;;;;;;;0.93;0.90;;;;;;;11.18;69.70;94707.50;4919685;29;20228;-83
2021/05/05 09:08:17;;;;;;;0.67;0.67;;;;;;;11.09;69.71;94704.34;4920436;29;20577;-81
2021/05/05 09:11:07;;;;;;;1.13;0.90;;;;;;;11.03;68.65;94705.16;4920282;29;20317;-81
2021/05/05 09:13:53;;;;;;;1.27;1.00;;;;;;;11.04;68.88;94702.38;4905975;29;20229;-81
2021/05/05 09:16:22;;;;;;;0.83;0.83;;;;;;;10.93;69.62;94708.16;4919766;29;20714;-80
2021/05/05 09:18:58;;;;;;;1.03;0.93;;;;;;;10.85;69.11;94717.84;4920115;29;20222;-84
2021/05/05 09:21:25;;;;;;;0.83;0.83;;;;;;;10.84;69.11;94717.06;4920243;29;20607;-82
2021/05/05 09:24:22;;;;;;;1.17;0.90;;;;;;;10.77;69.32;94716.28;4920071;29;20222;-82
2021/05/05 09:26:53;;;;;;;0.80;0.80;;;;;;;10.87;69.92;94716.66;4920427;29;20210;-84
2021/05/05 09:29:22;;;;;;;1.50;1.00;;;;;;;10.91;70.68;94719.63;4921106;29;20268;-81
2021/05/05 09:31:50;;;;;;;1.53;1.00;;;;;;;10.85;72.29;94726.34;4920607;29;20206;-82
2021/05/05 09:34:17;;;;;;;1.90;0.97;;;;;;;10.88;73.35;94722.59;4920849;29;20721;-81
2021/05/05 09:36:57;;;;;;;2.00;1.10;;;;;;;10.81;76.34;94724.38;4920963;29;20206;-82
2021/05/05 09:39:32;;;;;;;1.00;1.00;;;;;;;10.83;74.34;94732.69;4921497;29;20245;-83
2021/05/05 09:42:01;;;;;;;1.27;1.17;;;;;;;10.87;72.80;94719.22;4920170;29;20205;-83
2021/05/05 09:44:27;;;;;;;0.90;0.90;;;;;;;10.95;73.14;94724.19;4919994;29;20302;-82
2021/05/05 09:46:57;;;;;;;1.03;1.03;;;;;;;11.16;72.52;94735.25;4920308;29;20242;-83
2021/05/05 09:49:33;;;;;;;0.97;0.97;;;;;;;11.20;74.42;94732.06;4920486;29;20245;-82
2021/05/05 09:52:04;;;;;;;1.33;1.10;;;;;;;11.20;72.56;94726.13;4919979;29;20258;-83
2021/05/05 09:54:34;;;;;;;1.13;1.07;;;;;;;11.40;73.12;94732.81;4918992;29;20232;-83
2021/05/05 09:57:16;;;;;;;2.20;1.10;;;;;;;11.54;72.28;94723.28;4920201;29;20206;-83
2021/05/05 10:00:03;;;;;;;1.00;1.00;;;;;;;11.33;70.86;94731.25;4920734;29;20213;-83
2021/05/05 10:02:44;;;;;;;1.00;1.00;;;;;;;11.35;70.29;94731.84;4915602;29;20527;-82
2021/05/05 10:05:13;;;;;;;1.33;1.20;;;;;;;11.44;71.49;94730.63;4919457;29;20749;-82
2021/05/05 10:07:54;;;;;;;1.13;1.10;;;;;;;11.46;70.64;94736.38;4920564;29;20206;-83
2021/05/05 10:10:25;;;;;;;1.30;1.20;;;;;;;11.46;69.42;94733.81;4911322;29;20249;-83
2021/05/05 10:12:54;;;;;;;1.00;0.90;;;;;;;11.31;70.45;94731.47;4919860;29;20210;-84
2021/05/05 10:15:22;;;;;;;0.90;0.90;;;;;;;11.14;68.94;94750.13;4919321;29;20204;-82
2021/05/05 10:17:53;;;;;;;0.87;0.83;;;;;;;11.13;71.12;94751.13;4918275;29;20721;-81
2021/05/05 10:20:25;;;;;;;0.90;0.90;;;;;;;10.91;68.89;94747.97;4919948;29;20773;-82
2021/05/05 10:22:54;;;;;;;0.80;0.80;;;;;;;10.73;66.93;94743.41;4918396;29;20229;-83
2021/05/05 10:25:23;;;;;;;1.37;0.70;;;;;;;10.74;65.97;94750.13;4918145;29;20277;-82
2021/05/05 10:27:54;;;;;;;1.33;0.90;;;;;;;10.84;67.11;94742.81;4918575;29;20203;-82
2021/05/05 10:30:24;;;;;;;0.80;0.80;;;;;;;10.84;68.24;94757.44;4919207;29;20748;-81
2021/05/05 10:32:52;;;;;;;1.10;1.00;;;;;;;10.75;68.42;94759.44;4919256;29;20229;-81
2021/05/05 10:35:21;;;;;;;0.70;0.70;;;;;;;10.68;69.03;94762.00;4919242;29;20687;-80
2021/05/05 10:37:49;;;;;;;0.87;0.87;;;;;;;10.80;69.89;94769.94;4919234;29;20749;-83
2021/05/05 10:40:21;;;;;;;0.90;0.90;;;;;;;10.76;69.57;94806.59;4919650;29;20214;-82
2021/05/05 10:42:56;;;;;;;1.70;1.30;;;;;;;10.40;70.49;94828.25;4918031;29;20269;-80
2021/05/05 10:45:29;;;;;;;2.40;1.40;;;;;;;9.94;68.91;94825.50;4918260;29;20218;-80
2021/05/05 10:48:06;;;;;;;3.57;1.77;;;;;;;9.56;68.94;94814.81;4917462;29;20338;-80
2021/05/05 10:53:26;;;;;;;2.47;1.70;;;;;;;9.44;72.28;94837.66;5113222;27;751368;-82
2021/05/05 10:55:56;;;;;;;2.70;1.80;;;;;;;9.29;72.19;94850.59;5120120;28;20715;-82
2021/05/05 10:58:27;;;;;;;3.40;1.90;;;;;;;9.29;71.81;94863.44;5128716;28;20198;-83
2021/05/05 11:01:01;;;;;;;4.30;1.53;;;;;;;9.17;73.14;94844.41;5122289;28;20681;-81
2021/05/05 11:03:53;;;;;;;2.87;1.50;;;;;;;9.10;71.49;94837.63;5115446;28;20223;-81
2021/05/05 11:06:57;;;;;;;1.47;1.27;;;;;;;8.81;70.25;94844.50;5123704;28;20198;-82
2021/05/05 11:09:46;;;;;;;3.17;1.43;;;;;;;8.73;71.31;94854.88;5124689;28;20195;-82
2021/05/05 11:12:40;;;;;;;3.50;1.60;;;;;;;8.67;72.48;94845.31;5074805;28;20223;-82
2021/05/05 11:15:07;;;;;;;2.67;1.33;;;;;;;8.87;74.15;94848.06;5072901;28;20219;-81
2021/05/05 11:17:34;;;;;;;2.97;1.60;;;;;;;8.82;73.70;94853.00;5089187;28;20200;-80
2021/05/05 11:20:00;;;;;;;3.00;1.60;;;;;;;8.82;74.17;94853.78;5083873;28;20570;-81
2021/05/05 11:22:46;;;;;;;3.70;1.60;;;;;;;9.14;74.98;94843.97;5068750;28;20192;-80
2021/05/05 11:25:21;;;;;;;1.80;1.50;;;;;;;9.34;74.34;94847.50;5081622;28;20911;-81
2021/05/05 11:27:50;;;;;;;1.57;1.27;;;;;;;9.53;71.86;94851.19;5071565;28;20204;-80
2021/05/05 11:30:49;;;;;;;2.20;1.40;;;;;;;9.64;72.90;94868.63;5086662;28;20205;-83
2021/05/05 11:33:15;;;;;;;4.00;1.73;;;;;;;9.64;70.66;94863.50;5069415;28;20221;-80
2021/05/05 11:35:42;;;;;;;2.60;1.40;;;;;;;9.67;70.08;94861.34;5079419;28;20254;-80
2021/05/05 11:38:24;;;;;;;3.53;1.53;;;;;;;9.61;69.49;94845.91;5068796;28;20192;-82
2021/05/05 11:40:53;;;;;;;3.90;1.67;;;;;;;9.45;67.36;94843.59;5069322;28;20197;-81
2021/05/05 11:43:20;;;;;;;3.73;1.83;;;;;;;9.56;69.34;94851.59;5074512;28;20220;-82
2021/05/05 11:45:48;;;;;;;3.97;1.70;;;;;;;9.72;68.95;94845.38;5081153;28;20200;-82
2021/05/05 11:48:27;;;;;;;3.50;1.53;;;;;;;9.70;67.64;94855.03;5080282;28;20567;-80